KLGB/LGB METAR and TAF weather

Enter ICAO airport designator
Station Type Date Time Source
KLGB METAR 2019/08/22 08:53 UTC NOAA

KLGB 220853Z AUTO 16004KT 9SM FEW004 21/18 A2975 RMK AO2 SLP074 T02060178 58004


Station Type Date Time Source
KLGB Decoded METAR 2019/08/22 08:53 UTC NOAA

Station name not available
Aug 22, 2019 - 04:53 AM EDT / 2019.08.22 0853 UTC
Wind: from the SSE (160 degrees) at 5 MPH (4 KT):0
Visibility: 9 mile(s):0
Sky conditions: mostly clear
Temperature: 69.1 F (20.6 C)
Dew Point: 64.0 F (17.8 C)
Relative Humidity: 83%
Pressure (altimeter): 29.75 in. Hg (1007 hPa)
Pressure tendency: 0.01 inches (0.4 hPa) lower than three hours ago
ob: KLGB 220853Z AUTO 16004KT 9SM FEW004 21/18 A2975 RMK AO2 SLP074 T02060178 58004
cycle: 9

Station Type Date Time Source
KLGB TAF 2019/08/22 06:39 UTC NOAA

TAF KLGB 220535Z 2206/2306 VRB03KT P6SM SKC
FM221800 19008KT P6SM SKC
FM230400 14008KT P6SM BKN007

Example: see airport list